CheckWX is a tool to help pilots better visualize weather data.  It is not intended as a substitute for an official pre-flight weather briefing.

14:10:34 UTC

EGNM TAF
Leeds Bradford Airport
Leeds, United Kingdom
TAF EGNM 090457Z 0906/0915 05010KT 9999 BKN010 TEMPO 0906/0909 1200 BR BKN001 TEMPO 0909/0915 2000 +RADZ BKN003 PROB40 TEMPO 0909/0915 BKN001

Jul-9@
06:00 UTC

Jul-9 @ 06:00 UTC

Jul-9@
15:00 UTC

Jul-9 @ 15:00 UTC

TAF EGNM 090457Z 0906/0915 05010KT 9999 BKN010
Wind
  • 050° at 10 KTS
Cloud Levels
  • Broken at 1,000' AGL

Jul-9@
06:00 UTC

Jul-9 @ 06:00 UTC

Jul-9@
09:00 UTC

Jul-9 @ 09:00 UTC

TEMPO 0906/0909 1200 BR BKN001

Expired

Conditions
Mist
Cloud Levels
  • Broken at 100' AGL

Jul-9@
09:00 UTC

Jul-9 @ 09:00 UTC

Jul-9@
15:00 UTC

Jul-9 @ 15:00 UTC

PROB40 TEMPO 0909/0915 BKN001

Temporary - 40% Likelihood

Temporary - 40% Likelihood during this time.

Cloud Levels
  • Broken at 100' AGL

Jul-9@
09:00 UTC

Jul-9 @ 09:00 UTC

Jul-9@
15:00 UTC

Jul-9 @ 15:00 UTC

TEMPO 0909/0915 2000 +RADZ BKN003

Temporary

Temporary Changes expected for less than half the time period

Conditions
Heavy Rain, Heavy Drizzle
Cloud Levels
  • Broken at 300' AGL